Time,TemperatureF,DewpointF,PressureIn,WindDirection,WindDirectionDegrees,WindSpeedMPH,WindSpeedGustMPH,Humidity,HourlyPrecipIn,Conditions,Clouds,dailyrainin,SoftwareType,DateUTC
2013-06-05 00:13:00,86.7,32.0,29.37,North,356,0.0,-999.0,14,-99.99,,,0.00,weatherlink.com 1.10,2013-06-05 07:13:00,
2013-06-05 00:28:00,85.1,36.0,29.38,North,359,0.0,-999.0,17,-99.99,,,0.00,weatherlink.com 1.10,2013-06-05 07:28:00,
2013-06-05 00:43:00,84.3,38.0,29.38,North,359,3.0,-999.0,19,-99.99,,,0.00,weatherlink.com 1.10,2013-06-05 07:43:00,
2013-06-05 00:58:00,80.3,42.0,29.38,North,359,3.0,-999.0,26,-99.99,,,0.00,weatherlink.com 1.10,2013-06-05 07:58:00,
2013-06-05 01:13:00,78.3,43.0,29.38,North,359,4.0,-999.0,28,-99.99,,,0.00,weatherlink.com 1.10,2013-06-05 08:13:00,
2013-06-05 01:28:00,77.7,40.0,29.38,North,359,0.0,-999.0,26,-99.99,,,0.00,weatherlink.com 1.10,2013-06-05 08:28:00,
2013-06-05 01:43:00,77.9,42.0,29.38,North,359,0.0,-999.0,28,-99.99,,,0.00,weatherlink.com 1.10,2013-06-05 08:43:00,
2013-06-05 01:58:00,77.6,40.0,29.37,North,359,0.0,-999.0,26,-99.99,,,0.00,weatherlink.com 1.10,2013-06-05 08:58:00,
2013-06-05 02:13:00,77.4,40.0,29.37,North,359,0.0,-999.0,26,-99.99,,,0.00,weatherlink.com 1.10,2013-06-05 09:13:00,
2013-06-05 02:28:00,76.1,40.0,29.37,North,357,3.0,-999.0,27,-99.99,,,0.00,weatherlink.com 1.10,2013-06-05 09:28:00,
2013-06-05 02:43:00,75.6,39.0,29.37,North,357,0.0,-999.0,27,-99.99,,,0.00,weatherlink.com 1.10,2013-06-05 09:43:00,
2013-06-05 02:58:00,75.4,39.0,29.38,North,359,0.0,-999.0,27,-99.99,,,0.00,weatherlink.com 1.10,2013-06-05 09:58:00,
2013-06-05 03:13:00,75.1,42.0,29.38,North,359,0.0,-999.0,30,-99.99,,,0.00,weatherlink.com 1.10,2013-06-05 10:13:00,
2013-06-05 03:28:00,74.4,42.0,29.38,North,359,0.0,-999.0,31,-99.99,,,0.00,weatherlink.com 1.10,2013-06-05 10:28:00,
2013-06-05 03:43:00,74.6,39.0,29.38,North,359,0.0,-999.0,28,-99.99,,,0.00,weatherlink.com 1.10,2013-06-05 10:43:00,
2013-06-05 03:58:00,74.6,40.0,29.38,North,354,0.0,-999.0,29,-99.99,,,0.00,weatherlink.com 1.10,2013-06-05 10:58:00,
2013-06-05 04:13:00,74.6,40.0,29.39,North,359,0.0,-999.0,29,-99.99,,,0.00,weatherlink.com 1.10,2013-06-05 11:13:00,
2013-06-05 04:28:00,-999.0,-99.9,29.38,North,-999,-999.0,-999.0,-999,-99.99,,,0.00,weatherlink.com 1.10,2013-06-05 11:28:00,
2013-06-05 04:43:00,-999.0,-99.9,29.38,North,-999,-999.0,-999.0,-999,-99.99,,,0.00,weatherlink.com 1.10,2013-06-05 11:43:00,
2013-06-05 04:58:00,-999.0,-99.9,29.38,North,-999,-999.0,-999.0,-999,-99.99,,,0.00,weatherlink.com 1.10,2013-06-05 11:58:00,
2013-06-05 05:13:00,-999.0,-99.9,29.39,North,-999,-999.0,-999.0,-999,-99.99,,,0.00,weatherlink.com 1.10,2013-06-05 12:13:00,
2013-06-05 05:28:00,-999.0,-99.9,29.39,North,-999,-999.0,-999.0,-999,-99.99,,,0.00,weatherlink.com 1.10,2013-06-05 12:28:00,
2013-06-05 05:44:00,-999.0,-99.9,29.39,North,-999,-999.0,-999.0,-999,-99.99,,,0.00,weatherlink.com 1.10,2013-06-05 12:44:00,
2013-06-05 05:59:00,-999.0,-99.9,29.40,North,-999,-999.0,-999.0,-999,-99.99,,,0.00,weatherlink.com 1.10,2013-06-05 12:59:00,
2013-06-05 06:14:00,-999.0,-99.9,29.40,North,-999,-999.0,-999.0,-999,-99.99,,,0.00,weatherlink.com 1.10,2013-06-05 13:14:00,
2013-06-05 06:29:00,72.7,38.0,29.41,North,359,0.0,-999.0,28,-99.99,,,0.00,weatherlink.com 1.10,2013-06-05 13:29:00,
2013-06-05 06:44:00,73.2,36.0,29.41,North,359,0.0,-999.0,26,-99.99,,,0.00,weatherlink.com 1.10,2013-06-05 13:44:00,
2013-06-05 06:59:00,74.0,34.0,29.42,North,359,0.0,-999.0,23,-99.99,,,0.00,weatherlink.com 1.10,2013-06-05 13:59:00,
2013-06-05 07:14:00,76.1,37.0,29.42,North,357,0.0,-999.0,24,-99.99,,,0.00,weatherlink.com 1.10,2013-06-05 14:14:00,
2013-06-05 07:29:00,78.3,42.0,29.43,North,357,0.0,-999.0,27,-99.99,,,0.00,weatherlink.com 1.10,2013-06-05 14:29:00,
2013-06-05 07:44:00,81.2,39.0,29.43,North,357,0.0,-999.0,22,-99.99,,,0.00,weatherlink.com 1.10,2013-06-05 14:44:00,
2013-06-05 07:59:00,84.1,39.0,29.44,North,354,0.0,-999.0,20,-99.99,,,0.00,weatherlink.com 1.10,2013-06-05 14:59:00,
2013-06-05 08:14:00,87.0,39.0,29.44,North,359,0.0,-999.0,18,-99.99,,,0.00,weatherlink.com 1.10,2013-06-05 15:14:00,
2013-06-05 08:29:00,89.0,34.0,29.44,WSW,247,0.0,-999.0,14,-99.99,,,0.00,weatherlink.com 1.10,2013-06-05 15:29:00,
2013-06-05 08:44:00,91.0,37.0,29.45,West,264,0.0,-999.0,15,-99.99,,,0.00,weatherlink.com 1.10,2013-06-05 15:44:00,
2013-06-05 08:59:00,92.5,37.0,29.45,North,357,0.0,-999.0,14,-99.99,,,0.00,weatherlink.com 1.10,2013-06-05 15:59:00,
2013-06-05 09:14:00,93.2,33.0,29.45,North,357,5.0,-999.0,12,-99.99,,,0.00,weatherlink.com 1.10,2013-06-05 16:14:00,
2013-06-05 09:29:00,93.8,34.0,29.45,North,357,0.0,-999.0,12,-99.99,,,0.00,weatherlink.com 1.10,2013-06-05 16:29:00,
2013-06-05 09:44:00,94.7,35.0,29.45,North,357,0.0,-999.0,12,-99.99,,,0.00,weatherlink.com 1.10,2013-06-05 16:44:00,
2013-06-05 09:59:00,96.8,34.0,29.45,North,356,0.0,-999.0,11,-99.99,,,0.00,weatherlink.com 1.10,2013-06-05 16:59:00,
2013-06-05 10:14:00,98.2,37.0,29.45,North,357,1.0,-999.0,12,-99.99,,,0.00,weatherlink.com 1.10,2013-06-05 17:14:00,
2013-06-05 10:29:00,98.5,33.0,29.44,North,357,2.0,-999.0,10,-99.99,,,0.00,weatherlink.com 1.10,2013-06-05 17:29:00,
2013-06-05 10:44:00,99.7,34.0,29.44,North,357,0.0,-999.0,10,-99.99,,,0.00,weatherlink.com 1.10,2013-06-05 17:44:00,
2013-06-05 10:59:00,100.4,35.0,29.44,North,357,3.0,-999.0,10,-99.99,,,0.00,weatherlink.com 1.10,2013-06-05 17:59:00,
2013-06-05 11:14:00,101.0,35.0,29.44,North,357,1.0,-999.0,10,-99.99,,,0.00,weatherlink.com 1.10,2013-06-05 18:14:00,
2013-06-05 11:29:00,101.5,33.0,29.43,North,357,0.0,-999.0,9,-99.99,,,0.00,weatherlink.com 1.10,2013-06-05 18:29:00,
2013-06-05 11:44:00,102.3,33.0,29.43,North,356,1.0,-999.0,9,-99.99,,,0.00,weatherlink.com 1.10,2013-06-05 18:44:00,
2013-06-05 11:59:00,102.0,33.0,29.43,North,356,2.0,-999.0,9,-99.99,,,0.00,weatherlink.com 1.10,2013-06-05 18:59:00,
2013-06-05 12:14:00,102.3,33.0,29.42,North,356,2.0,-999.0,9,-99.99,,,0.00,weatherlink.com 1.10,2013-06-05 19:14:00,
2013-06-05 12:30:00,103.6,34.0,29.42,North,357,1.0,-999.0,9,-99.99,,,0.00,weatherlink.com 1.10,2013-06-05 19:30:00,
2013-06-05 12:45:00,103.8,35.0,29.42,North,357,0.0,-999.0,9,-99.99,,,0.00,weatherlink.com 1.10,2013-06-05 19:45:00,
2013-06-05 13:00:00,103.8,35.0,29.41,North,357,2.0,-999.0,9,-99.99,,,0.00,weatherlink.com 1.10,2013-06-05 20:00:00,
2013-06-05 13:15:00,104.6,32.0,29.41,North,357,4.0,-999.0,8,-99.99,,,0.00,weatherlink.com 1.10,2013-06-05 20:15:00,
2013-06-05 13:30:00,104.6,35.0,29.41,North,357,0.0,-999.0,9,-99.99,,,0.00,weatherlink.com 1.10,2013-06-05 20:30:00,
2013-06-05 13:45:00,105.1,36.0,29.40,North,357,3.0,-999.0,9,-99.99,,,0.00,weatherlink.com 1.10,2013-06-05 20:45:00,
2013-06-05 14:00:00,106.0,36.0,29.39,North,357,0.0,-999.0,9,-99.99,,,0.00,weatherlink.com 1.10,2013-06-05 21:00:00,
2013-06-05 14:15:00,106.5,34.0,29.39,North,354,0.0,-999.0,8,-99.99,,,0.00,weatherlink.com 1.10,2013-06-05 21:15:00,
2013-06-05 14:30:00,107.1,34.0,29.38,North,354,2.0,-999.0,8,-99.99,,,0.00,weatherlink.com 1.10,2013-06-05 21:30:00,
2013-06-05 14:45:00,107.1,34.0,29.38,North,354,6.0,-999.0,8,-99.99,,,0.00,weatherlink.com 1.10,2013-06-05 21:45:00,
2013-06-05 15:00:00,107.9,35.0,29.37,North,356,2.0,-999.0,8,-99.99,,,0.00,weatherlink.com 1.10,2013-06-05 22:00:00,
2013-06-05 15:15:00,108.2,32.0,29.36,North,356,2.0,-999.0,7,-99.99,,,0.00,weatherlink.com 1.10,2013-06-05 22:15:00,
2013-06-05 15:30:00,107.4,31.0,29.36,North,356,0.0,-999.0,7,-99.99,,,0.00,weatherlink.com 1.10,2013-06-05 22:30:00,
2013-06-05 15:45:00,106.2,30.0,29.35,North,357,6.0,-999.0,7,-99.99,,,0.00,weatherlink.com 1.10,2013-06-05 22:45:00,
2013-06-05 16:00:00,107.4,34.0,29.34,North,354,5.0,-999.0,8,-99.99,,,0.00,weatherlink.com 1.10,2013-06-05 23:00:00,
2013-06-05 16:15:00,107.4,31.0,29.34,West,275,2.0,-999.0,7,-99.99,,,0.00,weatherlink.com 1.10,2013-06-05 23:15:00,
2013-06-05 16:30:00,107.4,31.0,29.32,North,354,2.0,-999.0,7,-99.99,,,0.00,weatherlink.com 1.10,2013-06-05 23:30:00,
2013-06-05 16:45:00,107.1,31.0,29.32,North,354,1.0,-999.0,7,-99.99,,,0.00,weatherlink.com 1.10,2013-06-05 23:45:00,
2013-06-05 17:00:00,106.8,31.0,29.31,North,357,5.0,-999.0,7,-99.99,,,0.00,weatherlink.com 1.10,2013-06-06 00:00:00,
2013-06-05 17:15:00,106.5,30.0,29.31,North,357,5.0,-999.0,7,-99.99,,,0.00,weatherlink.com 1.10,2013-06-06 00:15:00,
2013-06-05 17:30:00,106.8,31.0,29.30,North,357,8.0,-999.0,7,-99.99,,,0.00,weatherlink.com 1.10,2013-06-06 00:30:00,
2013-06-05 17:45:00,106.8,31.0,29.30,North,357,5.0,-999.0,7,-99.99,,,0.00,weatherlink.com 1.10,2013-06-06 00:45:00,
2013-06-05 18:00:00,106.5,34.0,29.31,North,357,2.0,-999.0,8,-99.99,,,0.00,weatherlink.com 1.10,2013-06-06 01:00:00,
2013-06-05 18:15:00,105.7,33.0,29.31,North,357,1.0,-999.0,8,-99.99,,,0.00,weatherlink.com 1.10,2013-06-06 01:15:00,
2013-06-05 18:30:00,104.4,35.0,29.31,North,357,7.0,-999.0,9,-99.99,,,0.00,weatherlink.com 1.10,2013-06-06 01:30:00,
2013-06-05 18:45:00,103.6,34.0,29.31,North,357,0.0,-999.0,9,-99.99,,,0.00,weatherlink.com 1.10,2013-06-06 01:45:00,
2013-06-05 19:00:00,102.5,34.0,29.31,North,357,3.0,-999.0,9,-99.99,,,0.00,weatherlink.com 1.10,2013-06-06 02:00:00,
2013-06-05 19:15:00,101.5,35.0,29.31,North,357,2.0,-999.0,10,-99.99,,,0.00,weatherlink.com 1.10,2013-06-06 02:15:00,
2013-06-05 19:30:00,100.2,34.0,29.31,North,357,1.0,-999.0,10,-99.99,,,0.00,weatherlink.com 1.10,2013-06-06 02:30:00,
2013-06-05 19:45:00,98.7,36.0,29.31,North,356,1.0,-999.0,11,-99.99,,,0.00,weatherlink.com 1.10,2013-06-06 02:45:00,
2013-06-05 20:00:00,97.1,34.0,29.31,North,356,0.0,-999.0,11,-99.99,,,0.00,weatherlink.com 1.10,2013-06-06 03:00:00,
2013-06-05 20:15:00,95.6,33.0,29.31,NNW,335,0.0,-999.0,11,-99.99,,,0.00,weatherlink.com 1.10,2013-06-06 03:15:00,
2013-06-05 20:30:00,95.1,35.0,29.32,North,356,0.0,-999.0,12,-99.99,,,0.00,weatherlink.com 1.10,2013-06-06 03:30:00,
2013-06-05 20:45:00,94.7,35.0,29.32,North,356,1.0,-999.0,12,-99.99,,,0.00,weatherlink.com 1.10,2013-06-06 03:45:00,
2013-06-05 21:00:00,93.8,34.0,29.33,North,357,3.0,-999.0,12,-99.99,,,0.00,weatherlink.com 1.10,2013-06-06 04:00:00,
2013-06-05 21:15:00,93.2,33.0,29.34,North,357,1.0,-999.0,12,-99.99,,,0.00,weatherlink.com 1.10,2013-06-06 04:15:00,
2013-06-05 21:30:00,92.3,35.0,29.34,North,357,1.0,-999.0,13,-99.99,,,0.00,weatherlink.com 1.10,2013-06-06 04:30:00,
2013-06-05 21:45:00,91.6,34.0,29.35,North,357,0.0,-999.0,13,-99.99,,,0.00,weatherlink.com 1.10,2013-06-06 04:45:00,
2013-06-05 22:00:00,91.8,32.0,29.35,North,357,3.0,-999.0,12,-99.99,,,0.00,weatherlink.com 1.10,2013-06-06 05:00:00,
2013-06-05 22:15:00,91.8,32.0,29.35,North,357,2.0,-999.0,12,-99.99,,,0.00,weatherlink.com 1.10,2013-06-06 05:15:00,
2013-06-05 22:30:00,91.4,32.0,29.35,North,357,1.0,-999.0,12,-99.99,,,0.00,weatherlink.com 1.10,2013-06-06 05:30:00,
2013-06-05 22:45:00,91.2,32.0,29.35,North,357,0.0,-999.0,12,-99.99,,,0.00,weatherlink.com 1.10,2013-06-06 05:45:00,
2013-06-05 23:00:00,90.7,31.0,29.35,North,357,0.0,-999.0,12,-99.99,,,0.00,weatherlink.com 1.10,2013-06-06 06:00:00,
2013-06-05 23:15:00,90.5,31.0,29.34,North,357,2.0,-999.0,12,-99.99,,,0.00,weatherlink.com 1.10,2013-06-06 06:15:00,
2013-06-05 23:30:00,90.1,31.0,29.34,North,357,0.0,-999.0,12,-99.99,,,0.00,weatherlink.com 1.10,2013-06-06 06:30:00,
2013-06-05 23:45:00,89.9,31.0,29.34,North,357,0.0,-999.0,12,-99.99,,,0.00,weatherlink.com 1.10,2013-06-06 06:45:00,